createdAt,value
2018-07-25T00:02:31.203Z,2.40
2018-07-25T00:05:05.828Z,2.47
2018-07-25T00:07:40.582Z,2.30
2018-07-25T00:10:15.845Z,2.30
2018-07-25T00:12:49.974Z,2.53
2018-07-25T00:15:25.009Z,2.47
2018-07-25T00:17:59.574Z,2.47
2018-07-25T00:20:33.939Z,2.17
2018-07-25T00:23:08.589Z,2.63
2018-07-25T00:25:42.931Z,2.27
2018-07-25T00:28:17.307Z,2.50
2018-07-25T00:30:52.143Z,2.30
2018-07-25T00:33:26.593Z,2.10
2018-07-25T00:36:01.592Z,2.50
2018-07-25T00:38:36.504Z,2.40
2018-07-25T00:41:11.493Z,2.27
2018-07-25T00:43:46.957Z,2.43
2018-07-25T00:46:21.706Z,2.60
2018-07-25T00:48:56.440Z,2.37
2018-07-25T00:51:30.746Z,2.30
2018-07-25T00:54:05.690Z,2.43
2018-07-25T00:56:40.791Z,2.20
2018-07-25T00:59:15.502Z,2.43
2018-07-25T01:01:49.875Z,2.17
2018-07-25T01:04:24.211Z,2.27
2018-07-25T01:06:58.685Z,2.30
2018-07-25T01:09:33.587Z,2.00
2018-07-25T01:12:08.610Z,2.30
2018-07-25T01:14:43.605Z,2.00
2018-07-25T01:17:18.390Z,2.07
2018-07-25T01:19:52.729Z,2.20
2018-07-25T01:22:27.020Z,2.27
2018-07-25T01:25:01.296Z,2.37
2018-07-25T01:27:35.669Z,2.50
2018-07-25T01:30:10.563Z,2.13
2018-07-25T01:32:45.146Z,2.50
2018-07-25T01:35:19.539Z,2.60
2018-07-25T01:37:53.872Z,2.30
2018-07-25T01:40:28.460Z,2.37
2018-07-25T01:43:03.080Z,2.50
2018-07-25T01:45:37.431Z,2.40
2018-07-25T01:48:12.806Z,2.60
2018-07-25T01:50:46.891Z,2.30
2018-07-25T01:53:21.785Z,2.20
2018-07-25T01:55:56.829Z,2.20
2018-07-25T01:58:31.148Z,2.30
2018-07-25T02:01:05.563Z,2.57
2018-07-25T02:03:40.610Z,2.60
2018-07-25T02:06:14.894Z,2.50
2018-07-25T02:08:49.682Z,2.50
2018-07-25T02:11:24.245Z,2.77
2018-07-25T02:13:58.514Z,3.03
2018-07-25T02:16:33.629Z,2.57
2018-07-25T02:19:08.690Z,2.53
2018-07-25T02:21:42.781Z,2.60
2018-07-25T02:24:17.553Z,2.50
2018-07-25T02:26:52.088Z,2.70
2018-07-25T02:29:26.471Z,3.00
2018-07-25T02:32:00.695Z,2.83
2018-07-25T02:34:35.227Z,2.60
2018-07-25T02:37:09.671Z,2.63
2018-07-25T02:39:44.029Z,2.33
2018-07-25T02:42:18.812Z,2.37
2018-07-25T02:44:53.602Z,3.10
2018-07-25T02:47:27.937Z,2.80
2018-07-25T02:50:02.889Z,2.57
2018-07-25T02:52:37.221Z,2.90
2018-07-25T02:55:11.825Z,2.80
2018-07-25T02:57:46.331Z,2.60
2018-07-25T03:00:20.749Z,2.70
2018-07-25T03:02:55.188Z,3.30
2018-07-25T03:05:30.144Z,2.90
2018-07-25T03:08:04.630Z,3.17
2018-07-25T03:10:39.067Z,3.47
2018-07-25T03:13:13.705Z,2.67
2018-07-25T03:15:48.217Z,2.70
2018-07-25T03:18:22.471Z,2.97
2018-07-25T03:20:57.180Z,2.73
2018-07-25T03:23:33.043Z,2.73
2018-07-25T03:26:08.196Z,2.77
2018-07-25T03:28:43.131Z,2.67
2018-07-25T03:31:17.962Z,2.90
2018-07-25T03:33:52.643Z,2.60
2018-07-25T03:36:27.699Z,3.10
2018-07-25T03:39:01.824Z,3.37
2018-07-25T03:41:36.395Z,3.10
2018-07-25T03:44:10.830Z,2.87
2018-07-25T03:46:46.048Z,3.40
2018-07-25T03:49:20.283Z,3.10
2018-07-25T03:51:54.705Z,3.03
2018-07-25T03:54:29.983Z,3.20
2018-07-25T03:57:04.493Z,3.27
2018-07-25T03:59:38.659Z,3.37
2018-07-25T04:02:12.645Z,3.13
2018-07-25T04:04:46.767Z,3.20
2018-07-25T04:07:21.597Z,3.10
2018-07-25T04:09:56.405Z,3.27
2018-07-25T04:12:31.137Z,3.10
2018-07-25T04:15:05.630Z,3.17
2018-07-25T04:17:44.569Z,3.47
2018-07-25T04:20:20.081Z,3.40
2018-07-25T04:22:54.033Z,3.47
2018-07-25T04:25:29.207Z,3.40
2018-07-25T04:28:03.933Z,3.50
2018-07-25T04:30:36.982Z,3.90
2018-07-25T04:33:11.139Z,3.40
2018-07-25T04:35:44.058Z,3.30
2018-07-25T04:38:17.043Z,3.53
2018-07-25T04:40:49.879Z,3.67
2018-07-25T04:43:22.510Z,4.00
2018-07-25T04:45:55.119Z,3.87
2018-07-25T04:48:27.629Z,3.57
2018-07-25T04:51:00.249Z,3.83
2018-07-25T04:53:33.261Z,4.03
2018-07-25T04:56:06.076Z,4.00
2018-07-25T04:58:39.324Z,3.50
2018-07-25T05:01:12.019Z,3.50
2018-07-25T05:03:45.126Z,3.80
2018-07-25T05:06:18.597Z,4.00
2018-07-25T05:08:51.654Z,3.43
2018-07-25T05:11:24.532Z,4.10
2018-07-25T05:13:57.781Z,3.73
2018-07-25T05:16:30.710Z,3.20
2018-07-25T05:19:03.869Z,3.30
2018-07-25T05:21:36.782Z,3.63
2018-07-25T05:24:09.830Z,4.00
2018-07-25T05:26:42.553Z,3.53
2018-07-25T05:29:15.233Z,4.30
2018-07-25T05:31:47.897Z,4.00
2018-07-25T05:34:21.338Z,4.20
2018-07-25T05:36:54.970Z,4.37
2018-07-25T05:39:28.014Z,3.87
2018-07-25T05:42:00.633Z,4.07
2018-07-25T05:44:33.235Z,3.80
2018-07-25T05:47:06.976Z,3.73
2018-07-25T05:49:40.983Z,3.90
2018-07-25T05:52:14.490Z,4.57
2018-07-25T05:54:47.999Z,4.20
2018-07-25T05:57:21.735Z,4.00
2018-07-25T05:59:55.998Z,4.40
2018-07-25T06:02:30.144Z,4.30
2018-07-25T06:05:10.448Z,4.27
2018-07-25T06:07:46.576Z,4.40
2018-07-25T06:10:22.283Z,4.50
2018-07-25T06:12:59.668Z,4.40
2018-07-25T06:15:32.838Z,4.37
2018-07-25T06:18:06.102Z,4.70
2018-07-25T06:20:39.401Z,5.00
2018-07-25T06:23:12.593Z,4.27
2018-07-25T06:25:45.580Z,4.43
2018-07-25T06:28:18.869Z,4.53
2018-07-25T06:30:52.090Z,4.50
2018-07-25T06:33:25.932Z,4.63
2018-07-25T06:36:00.027Z,4.70
2018-07-25T06:38:33.517Z,4.70
2018-07-25T06:41:06.669Z,4.93
2018-07-25T06:43:40.694Z,5.07
2018-07-25T06:46:13.990Z,4.60
2018-07-25T06:48:47.214Z,5.33
2018-07-25T06:51:20.578Z,5.00
2018-07-25T06:53:53.841Z,4.73
2018-07-25T06:56:27.071Z,4.60
2018-07-25T06:59:00.262Z,5.10
2018-07-25T07:01:33.284Z,5.03
2018-07-25T07:04:07.063Z,4.60
2018-07-25T07:06:40.308Z,4.47
2018-07-25T07:09:13.821Z,4.40
2018-07-25T07:11:47.186Z,4.40
2018-07-25T07:14:20.423Z,4.00
2018-07-25T07:16:53.873Z,4.30
2018-07-25T07:19:26.985Z,4.70
2018-07-25T07:21:59.932Z,4.17
2018-07-25T07:24:33.118Z,4.47
2018-07-25T07:27:06.613Z,4.23
2018-07-25T07:29:39.946Z,4.03
2018-07-25T07:32:13.209Z,3.83
2018-07-25T07:34:46.269Z,3.93
2018-07-25T07:37:19.565Z,4.10
2018-07-25T07:39:52.805Z,3.73
2018-07-25T07:42:25.949Z,3.90
2018-07-25T07:44:59.330Z,3.80
2018-07-25T07:47:33.065Z,3.67
2018-07-25T07:50:07.096Z,4.83
2018-07-25T07:52:40.266Z,3.70
2018-07-25T07:55:13.776Z,4.17
2018-07-25T07:57:47.102Z,3.43
2018-07-25T08:00:20.462Z,3.30
2018-07-25T08:02:53.637Z,3.30
2018-07-25T08:05:27.140Z,3.77
2018-07-25T08:08:00.348Z,3.43
2018-07-25T08:10:33.362Z,3.40
2018-07-25T08:13:06.507Z,3.37
2018-07-25T08:15:40.777Z,3.43
2018-07-25T08:18:14.318Z,3.47
2018-07-25T08:20:47.730Z,3.40
2018-07-25T08:23:20.782Z,3.27
2018-07-25T08:25:53.799Z,3.43
2018-07-25T08:28:27.156Z,3.33
2018-07-25T08:31:00.839Z,2.90
2018-07-25T08:33:34.039Z,3.10
2018-07-25T08:36:07.435Z,2.57
2018-07-25T08:38:41.742Z,3.03
2018-07-25T08:41:15.351Z,2.90
2018-07-25T08:43:49.174Z,2.80
2018-07-25T08:46:22.677Z,3.27
2018-07-25T08:48:56.022Z,2.90
2018-07-25T08:51:29.477Z,3.43
2018-07-25T08:54:02.546Z,3.35
2018-07-25T08:56:35.650Z,3.20
2018-07-25T08:59:08.893Z,3.00
2018-07-25T09:01:41.889Z,3.08
2018-07-25T09:04:14.902Z,3.00
2018-07-25T09:06:48.224Z,3.42
2018-07-25T09:09:21.357Z,3.15
2018-07-25T09:11:54.502Z,3.37
2018-07-25T09:14:27.361Z,3.20
2018-07-25T09:17:00.772Z,3.50
2018-07-25T09:19:33.845Z,3.55
2018-07-25T09:22:06.801Z,3.10
2018-07-25T09:24:40.548Z,3.20
2018-07-25T09:27:13.699Z,3.02
2018-07-25T09:29:47.065Z,3.40
2018-07-25T09:32:20.930Z,2.95
2018-07-25T09:34:54.967Z,3.00
2018-07-25T09:37:28.437Z,3.42
2018-07-25T09:40:01.458Z,3.67
2018-07-25T09:42:34.566Z,3.40
2018-07-25T09:45:09.518Z,3.52
2018-07-25T09:47:42.447Z,3.25
2018-07-25T09:50:15.567Z,3.62
2018-07-25T09:52:48.717Z,3.62
2018-07-25T09:55:22.129Z,3.52
2018-07-25T09:57:55.500Z,3.60
2018-07-25T10:00:33.324Z,3.40
2018-07-25T10:03:06.280Z,3.70
2018-07-25T10:05:39.611Z,3.70
2018-07-25T10:08:12.795Z,3.52
2018-07-25T10:10:46.668Z,3.50
2018-07-25T10:13:19.906Z,3.40
2018-07-25T10:15:53.011Z,3.15
2018-07-25T10:18:25.781Z,3.55
2018-07-25T10:20:58.844Z,3.30
2018-07-25T10:23:31.730Z,3.08
2018-07-25T10:26:04.489Z,3.67
2018-07-25T10:28:37.580Z,3.17
2018-07-25T10:31:11.219Z,3.12
2018-07-25T10:33:44.118Z,3.02
2018-07-25T10:36:17.576Z,3.20
2018-07-25T10:38:51.562Z,3.40
2018-07-25T10:41:24.950Z,3.30
2018-07-25T10:43:58.051Z,3.20
2018-07-25T10:46:31.902Z,3.33
2018-07-25T10:49:05.234Z,3.35
2018-07-25T10:51:38.519Z,3.25
2018-07-25T10:54:12.205Z,3.27
2018-07-25T10:56:45.577Z,3.33
2018-07-25T10:59:18.832Z,3.37
2018-07-25T11:01:51.977Z,3.77
2018-07-25T11:04:25.283Z,3.15
2018-07-25T11:06:58.326Z,3.05
2018-07-25T11:09:31.577Z,3.20
2018-07-25T11:12:04.786Z,3.80
2018-07-25T11:14:38.125Z,3.62
2018-07-25T11:17:11.028Z,3.55
2018-07-25T11:19:43.938Z,3.42
2018-07-25T11:22:17.422Z,3.40
2018-07-25T11:24:50.670Z,3.85
2018-07-25T11:27:23.720Z,3.75
2018-07-25T11:29:56.973Z,3.65
2018-07-25T11:32:30.308Z,3.77
2018-07-25T11:35:03.410Z,3.75
2018-07-25T11:37:36.480Z,3.90
2018-07-25T11:40:10.552Z,3.67
2018-07-25T11:42:43.905Z,3.67
2018-07-25T11:45:22.062Z,3.45
2018-07-25T11:47:55.308Z,4.00
2018-07-25T11:50:28.603Z,3.75
2018-07-25T11:53:02.138Z,3.55
2018-07-25T11:55:35.421Z,4.00
2018-07-25T11:58:08.417Z,3.58
2018-07-25T12:00:41.990Z,3.77
2018-07-25T12:03:15.903Z,3.50
2018-07-25T12:05:48.720Z,3.72
2018-07-25T12:08:21.805Z,3.00
2018-07-25T12:10:54.773Z,3.67
2018-07-25T12:13:28.433Z,3.35
2018-07-25T12:16:01.918Z,3.47
2018-07-25T12:18:35.108Z,3.50
2018-07-25T12:21:09.678Z,3.33
2018-07-25T12:23:42.855Z,3.60
2018-07-25T12:28:49.825Z,3.35
2018-07-25T12:31:23.369Z,3.72
2018-07-25T12:33:56.372Z,3.30
2018-07-25T12:36:29.976Z,3.20
2018-07-25T12:39:03.154Z,3.90
2018-07-25T12:41:36.523Z,3.22
2018-07-25T12:44:09.882Z,3.65
2018-07-25T12:46:42.857Z,3.25
2018-07-25T12:49:16.146Z,3.50
2018-07-25T12:51:49.028Z,3.00
2018-07-25T12:54:22.096Z,3.52
2018-07-25T12:56:55.274Z,2.90
2018-07-25T12:59:28.898Z,3.10
2018-07-25T13:02:02.256Z,3.27
2018-07-25T13:04:35.223Z,3.10
2018-07-25T13:07:08.553Z,3.37
2018-07-25T13:09:41.946Z,2.98
2018-07-25T13:12:14.928Z,3.10
2018-07-25T13:14:48.497Z,2.95
2018-07-25T13:17:21.473Z,3.05
2018-07-25T13:19:54.653Z,2.85
2018-07-25T13:22:27.963Z,3.05
2018-07-25T13:25:01.169Z,2.80
2018-07-25T13:27:34.493Z,2.90
2018-07-25T13:30:08.684Z,2.72
2018-07-25T13:32:41.870Z,2.67
2018-07-25T13:35:14.991Z,3.22
2018-07-25T13:37:48.756Z,2.90
2018-07-25T13:40:22.286Z,3.08
2018-07-25T13:42:55.542Z,2.80
2018-07-25T13:45:28.648Z,3.37
2018-07-25T13:48:02.370Z,2.90
2018-07-25T13:50:35.357Z,3.02
2018-07-25T13:53:08.749Z,2.95
2018-07-25T13:55:41.663Z,2.70
2018-07-25T13:58:15.105Z,2.42
2018-07-25T14:00:48.129Z,2.75
2018-07-25T14:03:21.173Z,2.72
2018-07-25T14:05:54.281Z,2.55
2018-07-25T14:08:27.378Z,2.55
2018-07-25T14:11:00.284Z,2.80
2018-07-25T14:13:34.523Z,2.30
2018-07-25T14:16:07.854Z,2.47
2018-07-25T14:18:41.017Z,2.60
2018-07-25T14:21:14.880Z,2.58
2018-07-25T14:23:47.835Z,2.65
2018-07-25T14:26:21.037Z,2.37
2018-07-25T14:28:54.067Z,2.10
2018-07-25T14:31:26.978Z,2.20
2018-07-25T14:34:00.118Z,2.25
2018-07-25T14:36:33.575Z,2.35
2018-07-25T14:39:11.019Z,2.40
2018-07-25T14:41:44.800Z,2.20
2018-07-25T14:44:18.072Z,2.75
2018-07-25T14:46:51.107Z,2.25
2018-07-25T14:49:24.801Z,2.22
2018-07-25T14:51:57.806Z,2.62
2018-07-25T14:54:31.326Z,2.52
2018-07-25T14:57:04.669Z,2.20
2018-07-25T14:59:37.668Z,2.30
2018-07-25T15:02:10.706Z,2.67
2018-07-25T15:04:43.851Z,2.50
2018-07-25T15:07:17.090Z,2.30
2018-07-25T15:09:50.149Z,2.42
2018-07-25T15:12:28.085Z,2.40
2018-07-25T15:15:01.883Z,2.15
2018-07-25T15:17:35.106Z,2.10
2018-07-25T15:20:10.958Z,2.45
2018-07-25T15:22:44.005Z,2.65
2018-07-25T15:25:17.498Z,3.52
2018-07-25T15:27:50.513Z,3.25
2018-07-25T15:30:23.761Z,3.47
2018-07-25T15:32:57.195Z,3.50
2018-07-25T15:35:30.325Z,3.47
2018-07-25T15:38:03.521Z,3.65
2018-07-25T15:40:36.953Z,3.47
2018-07-25T15:43:11.069Z,3.47
2018-07-25T15:45:44.229Z,3.40
2018-07-25T15:48:17.285Z,3.35
2018-07-25T15:50:50.820Z,3.70
2018-07-25T15:53:24.581Z,3.62
2018-07-25T15:55:57.516Z,3.45
2018-07-25T15:58:30.570Z,4.15
2018-07-25T16:01:04.616Z,3.50
2018-07-25T16:03:37.718Z,4.00
2018-07-25T16:06:10.833Z,3.47
2018-07-25T16:08:43.754Z,3.33
2018-07-25T16:11:17.170Z,3.15
2018-07-25T16:13:50.455Z,3.52
2018-07-25T16:16:23.623Z,3.65
2018-07-25T16:18:56.629Z,3.60
2018-07-25T16:21:29.857Z,3.70
2018-07-25T16:24:02.910Z,3.35
2018-07-25T16:26:36.605Z,3.58
2018-07-25T16:29:09.696Z,3.52
2018-07-25T16:31:42.663Z,3.62
2018-07-25T16:34:16.151Z,3.35
2018-07-25T16:36:49.787Z,3.42
2018-07-25T16:39:23.185Z,3.33
2018-07-25T16:41:56.457Z,3.35
2018-07-25T16:44:29.774Z,3.58
2018-07-25T16:47:03.099Z,3.45
2018-07-25T16:49:36.430Z,3.67
2018-07-25T16:52:10.323Z,3.42
2018-07-25T16:54:43.388Z,3.80
2018-07-25T16:57:17.466Z,3.33
2018-07-25T16:59:50.589Z,3.40
2018-07-25T17:02:23.658Z,3.30
2018-07-25T17:04:57.341Z,3.67
2018-07-25T17:07:30.368Z,3.80
2018-07-25T17:10:04.097Z,3.60
2018-07-25T17:12:37.205Z,3.75
2018-07-25T17:15:11.695Z,3.42
2018-07-25T17:17:45.216Z,3.10
2018-07-25T17:20:18.473Z,3.30
2018-07-25T17:22:51.697Z,3.10
2018-07-25T17:25:25.257Z,3.30
2018-07-25T17:27:58.257Z,3.40
2018-07-25T17:30:31.784Z,3.27
2018-07-25T17:33:05.294Z,3.62
2018-07-25T17:35:38.089Z,3.35
2018-07-25T17:38:12.015Z,2.90
2018-07-25T17:40:45.271Z,3.30
2018-07-25T17:43:19.081Z,3.20
2018-07-25T17:45:52.066Z,2.90
2018-07-25T17:48:25.442Z,2.90
2018-07-25T17:50:59.110Z,3.00
2018-07-25T17:53:31.942Z,3.37
2018-07-25T17:56:05.273Z,2.95
2018-07-25T17:58:38.624Z,2.90
2018-07-25T18:01:12.360Z,2.75
2018-07-25T18:03:46.023Z,2.92
2018-07-25T18:06:20.271Z,3.10
2018-07-25T18:08:53.165Z,3.25
2018-07-25T18:11:26.174Z,2.87
2018-07-25T18:14:04.141Z,2.40
2018-07-25T18:16:37.694Z,2.75
2018-07-25T18:19:11.257Z,2.75
2018-07-25T18:21:44.556Z,2.62
2018-07-25T18:24:17.659Z,2.37
2018-07-25T18:26:51.442Z,2.60
2018-07-25T18:29:24.955Z,2.83
2018-07-25T18:31:58.030Z,2.80
2018-07-25T18:34:32.324Z,2.55
2018-07-25T18:37:05.490Z,2.45
2018-07-25T18:39:38.468Z,2.47
2018-07-25T18:42:11.483Z,2.40
2018-07-25T18:44:44.637Z,2.60
2018-07-25T18:47:17.866Z,2.57
2018-07-25T18:49:50.704Z,2.50
2018-07-25T18:52:23.595Z,2.77
2018-07-25T18:54:57.150Z,3.40
2018-07-25T18:57:30.615Z,3.25
2018-07-25T19:00:03.977Z,3.27
2018-07-25T19:02:37.208Z,3.33
2018-07-25T19:05:10.087Z,2.90
2018-07-25T19:07:43.621Z,3.02
2018-07-25T19:10:16.212Z,3.00
2018-07-25T19:12:50.095Z,3.17
2018-07-25T19:15:28.670Z,3.00
2018-07-25T19:18:02.388Z,3.03
2018-07-25T19:20:35.561Z,2.87
2018-07-25T19:23:09.161Z,3.17
2018-07-25T19:25:43.044Z,3.53
2018-07-25T19:28:16.172Z,3.47
2018-07-25T19:30:49.897Z,3.43
2018-07-25T19:33:23.146Z,3.27
2018-07-25T19:35:56.164Z,3.70
2018-07-25T19:38:29.135Z,3.60
2018-07-25T19:41:02.369Z,4.07
2018-07-25T19:43:35.779Z,3.50
2018-07-25T19:46:10.051Z,3.57
2018-07-25T19:48:43.211Z,3.93
2018-07-25T19:51:16.681Z,3.80
2018-07-25T19:53:49.782Z,3.70
2018-07-25T19:56:23.368Z,3.40
2018-07-25T19:58:56.280Z,3.47
2018-07-25T20:01:29.330Z,3.33
2018-07-25T20:04:02.690Z,3.40
2018-07-25T20:06:36.117Z,3.90
2018-07-25T20:09:11.062Z,3.80
2018-07-25T20:11:44.735Z,3.60
2018-07-25T20:14:22.448Z,3.80
2018-07-25T20:16:55.830Z,3.60
2018-07-25T20:19:29.262Z,3.70
2018-07-25T20:22:02.626Z,3.63
2018-07-25T20:24:36.252Z,3.87
2018-07-25T20:27:09.093Z,4.20
2018-07-25T20:29:42.501Z,4.47
2018-07-25T20:32:16.303Z,4.40
2018-07-25T20:34:49.225Z,3.77
2018-07-25T20:37:22.925Z,4.00
2018-07-25T20:39:56.302Z,4.07
2018-07-25T20:42:29.881Z,4.10
2018-07-25T20:45:03.110Z,4.13
2018-07-25T20:47:36.491Z,3.77
2018-07-25T20:50:09.613Z,3.50
2018-07-25T20:52:42.701Z,3.73
2018-07-25T20:55:15.690Z,4.20
2018-07-25T20:57:49.464Z,4.33
2018-07-25T21:00:26.895Z,4.27
2018-07-25T21:03:01.473Z,3.93
2018-07-25T21:05:36.514Z,4.10
2018-07-25T21:08:10.820Z,4.10
2018-07-25T21:10:45.121Z,3.83
2018-07-25T21:13:22.627Z,4.57
2018-07-25T21:15:57.420Z,4.70
2018-07-25T21:18:32.615Z,4.70
2018-07-25T21:21:07.549Z,4.60
2018-07-25T21:23:42.020Z,4.30
2018-07-25T21:26:16.884Z,4.40
2018-07-25T21:28:52.447Z,4.30
2018-07-25T21:31:26.900Z,4.20
2018-07-25T21:34:01.609Z,4.47
2018-07-25T21:36:35.942Z,5.00
2018-07-25T21:39:14.303Z,4.67
2018-07-25T21:41:50.915Z,4.43
2018-07-25T21:44:32.707Z,4.23
2018-07-25T21:47:08.378Z,4.77
2018-07-25T21:49:43.531Z,5.20
2018-07-25T21:52:19.897Z,4.60
2018-07-25T21:54:54.602Z,4.50
2018-07-25T21:57:31.395Z,4.50
2018-07-25T22:00:09.086Z,4.40
2018-07-25T22:02:42.893Z,4.50
2018-07-25T22:05:18.684Z,4.47
2018-07-25T22:07:54.205Z,4.30
2018-07-25T22:10:29.031Z,4.77
2018-07-25T22:13:04.797Z,5.10
2018-07-25T22:15:39.987Z,4.63
2018-07-25T22:18:14.632Z,4.73
2018-07-25T22:20:49.211Z,4.73
2018-07-25T22:23:23.968Z,5.27
2018-07-25T22:25:58.584Z,4.43
2018-07-25T22:28:33.516Z,4.70
2018-07-25T22:31:08.325Z,4.70
2018-07-25T22:33:42.884Z,4.83
2018-07-25T22:36:17.489Z,5.07
2018-07-25T22:38:52.131Z,4.53
2018-07-25T22:41:27.059Z,4.57
2018-07-25T22:44:03.122Z,4.83
2018-07-25T22:46:38.127Z,4.87
2018-07-25T22:49:12.606Z,5.00
2018-07-25T22:51:47.721Z,5.37
2018-07-25T22:54:22.262Z,5.20
2018-07-25T22:56:56.882Z,5.57
2018-07-25T22:59:31.604Z,4.97
2018-07-25T23:02:06.273Z,5.40
2018-07-25T23:04:40.624Z,5.07
2018-07-25T23:07:15.023Z,4.97
2018-07-25T23:09:49.475Z,4.90
2018-07-25T23:12:24.069Z,5.60
2018-07-25T23:14:58.656Z,5.03
2018-07-25T23:17:33.486Z,6.00
2018-07-25T23:20:07.921Z,6.07
2018-07-25T23:23:00.143Z,5.80
2018-07-25T23:25:34.932Z,6.40
2018-07-25T23:28:09.266Z,5.80
2018-07-25T23:30:43.686Z,6.17
2018-07-25T23:33:18.536Z,5.90
2018-07-25T23:35:53.227Z,5.93
2018-07-25T23:38:27.787Z,6.30
2018-07-25T23:41:02.149Z,6.37
2018-07-25T23:43:36.535Z,5.93
2018-07-25T23:46:11.467Z,5.80
2018-07-25T23:48:45.733Z,5.60
2018-07-25T23:51:22.419Z,5.87
2018-07-25T23:53:59.159Z,5.70
2018-07-25T23:56:35.849Z,5.90
2018-07-25T23:59:10.633Z,6.17
